Terminal Aerodrome Forecast
Issued by NWS

Home | Current Version | Previous Version | Graphics & Text | Print | Product List | Glossary On
Versions: 1 2 3 4 5 6 7 8 9 10 11 12 13 14 15 16
000
FTUS43 KICT 281138
TAFRSL
TAF
KRSL 281138Z 2812/0112 27008KT P6SM SCT200
     FM281400 34008KT P6SM BKN200
     FM281800 27012KT P6SM BKN150
     FM282300 34017G26KT P6SM VCSH BKN070
     FM010600 32014G22KT P6SM SCT100=

USA.gov is the U.S. government's official web portal to all federal, state and local government web resources and services.